Weather observations for the past three days for
Gordonsville Municipal Airport
Imperial (Metric)
Date Time (edt) Wind (mph) Vis. (mi.) Weather Sky Cond. Temperature (ºF) Relative Humidity Wind Chill (°F) Heat Index (°F) Pressure Precipitation (in)
Air Dwpt 6 hour altimeter (in) sea level (mb) 1 hr 3 hr 6 hr
Max. Min.
04 03:55 Calm 10.00 Partly Cloudy SCT120 46.6 39.7 77% 29.99 0.0
04 03:35 Calm 10.00 Fair CLR 46.4 39.7 78% 29.99 0.0
04 03:15 Calm 10.00 Partly Cloudy SCT100 47.8 39.2 72% 29.99 0.0
04 02:55 Calm 10.00 Overcast BKN100 OVC120 47.8 38.3 70% 29.99 0.0
04 02:35 Calm 10.00 Overcast SCT100 OVC120 47.8 39.9 74% 29.99 0.0
04 02:15 Calm 10.00 Overcast OVC110 47.3 40.6 78% 30 0.0
04 01:55 Calm 10.00 Overcast OVC110 47.3 40.8 55.4 43.7 78% 30 0.0
04 01:35 Calm 10.00 Overcast OVC110 47.5 40.1 76% 30 0.0
04 01:15 Calm 10.00 Overcast OVC120 47.7 39.2 73% 30 0.0
04 00:55 Calm 10.00 Overcast OVC110 47.5 39.4 74% 30 0.0
04 00:35 Calm 10.00 Overcast OVC120 46.6 39 75% 30 0.0
04 00:15 Calm 10.00 Mostly Cloudy BKN120 46.9 39.2 75% 29.99 0.0
03 23:55 Calm 10.00 Partly Cloudy SCT120 46.4 38.5 74% 29.99 0.0
03 23:35 Calm 10.00 Fair CLR 45.9 37.9 74% 29.99 0.0
03 23:15 Calm 10.00 Fair CLR 45.7 38.1 75% 29.99 0.0
03 22:55 Calm 10.00 Fair CLR 44.8 37.2 75% 29.99 0.0
03 22:35 Calm 10.00 Fair CLR 44.2 36.7 75% 29.99 0.0
03 22:15 Calm 10.00 Fair CLR 44.6 36.9 74% 29.99 0.0
03 21:55 Calm 10.00 Fair CLR 45.9 36.3 69% 29.98 0.0
03 21:35 Calm 10.00 Fair CLR 47.1 35.8 65% 29.97 0.0
03 21:15 Calm 10.00 Fair CLR 48.2 35.6 62% 29.97 0.0
03 20:55 Calm 10.00 Fair CLR 50 34.7 56% 29.97 0.0
03 20:35 Calm 10.00 Fair CLR 51.3 34.9 54% 29.97 0.0
03 20:15 Calm 10.00 Fair CLR 52.9 36.5 54% 29.96 0.0
03 19:55 Calm 10.00 Fair CLR 56.3 35.4 65.5 56.3 46% 29.96 0.0
03 19:35 S 3 10.00 Fair CLR 59.2 31.5 35% 29.95 0.0
03 19:15 Calm 10.00 Fair CLR 63.5 25.9 24% 29.95 0.0
03 18:55 SW 5 10.00 Fair CLR 64.4 26.6 24% 29.95 0.0
03 18:35 SW 6 10.00 Fair CLR 64.6 25.9 23% 29.95 0.0
03 18:15 SW 8 10.00 Fair CLR 64.8 24.6 22% 29.95 0.0
03 17:55 Calm 10.00 Fair CLR 64.4 24.6 22% 29.96 0.0
03 17:35 N 3 10.00 Fair CLR 64.4 24.1 22% 29.96 0.0
03 17:15 Calm 10.00 Fair CLR 64 25.5 23% 29.96 0.0
03 16:55 SW 6 10.00 Fair CLR 63.7 24.1 22% 29.96 0.0
03 16:35 SW 8 10.00 Fair CLR 64.2 25 22% 29.97 0.0
03 16:15 N 5 10.00 Fair CLR 62.6 25.3 24% 29.97 0.0
03 15:55 SW 12 G 16 10.00 Fair CLR 63.9 27.9 26% 29.97 0.0
03 15:35 Calm 10.00 Fair CLR 61.7 25.9 26% 29.99 0.0
03 14:55 W 5 10.00 Partly Cloudy SCT080 61.3 25.5 25% 30.01 0.0
03 14:35 W 6 10.00 Partly Cloudy SCT080 61.2 27.3 28% 30.02 0.0
03 14:15 W 6 G 18 10.00 Partly Cloudy SCT080 60.1 25.7 27% 30.02 0.0
03 13:55 Calm 10.00 Fair CLR 58.6 25.2 59.2 46.4 28% 30.03 0.0
03 13:35 W 3 10.00 Partly Cloudy SCT075 58.3 25.3 28% 30.03 0.0
03 13:15 W 6 10.00 Partly Cloudy SCT075 57.7 25.7 29% 30.04 0.0
03 12:55 W 7 10.00 Fair CLR 57.9 26.4 30% 30.05 0.0
03 12:35 NW 7 10.00 Fair CLR 55.8 25.3 31% 30.05 0.0
03 12:15 NW 3 10.00 Partly Cloudy SCT070 55 25.2 32% 30.06 0.0
03 11:55 NW 8 10.00 Partly Cloudy SCT070 53.8 24.6 32% 30.07 0.0
03 11:35 W 8 10.00 Fair CLR 54.5 25.9 33% 30.08 0.0
03 11:15 N 9 10.00 Fair CLR 53.4 26.1 35% 30.08 0.0
03 10:55 NW 6 10.00 Fair CLR 52.3 24.6 34% 30.07 0.0
03 10:35 NW 5 10.00 Fair CLR 52 25.2 35% 30.08 0.0
03 10:15 NW 6 10.00 Fair CLR 51.3 25.3 36% 30.08 0.0
03 09:55 NW 10 10.00 Fair CLR 50.9 26.1 38% 30.08 0.0
03 09:35 NW 9 G 18 10.00 Fair CLR 49.5 24.8 38% 46 30.08 0.0
03 09:15 W 7 G 17 10.00 Fair CLR 48.6 25.3 40% 46 30.07 0.0
03 08:55 NW 7 10.00 Fair CLR 48.4 26.8 43% 46 30.07 0.0
03 08:35 NW 6 G 16 10.00 Fair CLR 47.7 27 45% 45 30.08 0.0
03 08:15 Calm 10.00 Fair CLR 47.5 29.1 49% 30.07 0.0
03 07:55 Calm 10.00 Fair CLR 46.4 29.7 47.1 37.4 52% 30.07 0.0
03 07:35 Calm 10.00 Fair CLR 45.5 30 55% 30.06 0.0
03 07:15 Calm 10.00 Partly Cloudy SCT070 44.8 30.4 57% 30.05 0.0
03 06:55 Calm 10.00 Overcast OVC070 44.4 30.4 58% 30.04 0.0
03 06:35 N 3 10.00 Overcast OVC070 44.2 29.7 57% 30.02 0.0
03 06:15 Calm 10.00 Overcast OVC070 41.4 33.8 75% 30.01 0.0
03 05:55 Calm 10.00 Overcast OVC070 39.2 36.1 89% 30 0.0
03 05:35 Calm 10.00 Overcast OVC070 39 35.8 88% 30 0.0
03 05:15 Calm 10.00 Overcast OVC070 38.7 35.8 89% 30 0.0
03 04:55 Calm 10.00 Mostly Cloudy BKN070 39 35.4 87% 29.99 0.0
03 04:35 Calm 10.00 Mostly Cloudy SCT060 BKN070 37.9 34.7 88% 29.99 0.0
03 04:15 Calm 10.00 Mostly Cloudy BKN060 37.6 34.3 88% 29.98 0.0
03 03:55 Calm 10.00 Fair CLR 38.7 34.7 86% 29.98 0.0
03 03:35 Calm 10.00 Partly Cloudy SCT090 39.9 34.9 82% 29.98 0.0
03 03:15 Calm 10.00 Fair CLR 40.1 34.5 81% 29.97 0.0
03 02:55 Calm 10.00 Partly Cloudy SCT095 42.6 33.6 71% 29.96 0.0
03 02:35 Calm 10.00 Overcast OVC095 43.9 33.8 68% 29.96 0.0
03 02:15 Calm 10.00 Overcast OVC095 45.9 33.8 63% 29.96 0.0
03 01:55 Calm 10.00 Overcast OVC095 47.5 32.5 54.7 47.5 56% 29.96 0.0
03 01:35 Calm 10.00 Overcast SCT080 OVC095 48.2 32 54% 29.95 0.0
03 01:15 NE 5 10.00 Overcast SCT080 OVC095 49.1 32 52% 48 29.95 0.0
03 00:55 N 7 10.00 Overcast OVC095 49.5 32 51% 47 29.95 0.0
03 00:35 N 9 10.00 Overcast OVC095 50.2 32 50% 29.95 0.0
03 00:15 NE 5 10.00 Overcast OVC095 50.7 32.2 49% 29.95 0.0
02 23:55 N 5 10.00 Overcast OVC085 50.4 33.8 53% 29.94 0.0
02 23:35 NE 6 10.00 Overcast OVC085 51.4 33.1 50% 29.94 0.0
02 23:15 NE 5 10.00 Overcast BKN085 OVC110 51.8 32.7 48% 29.94 0.0
02 22:55 Calm 10.00 Overcast BKN085 OVC110 52 34.3 51% 29.94 0.0
02 22:35 Calm 10.00 Overcast OVC075 52.3 33.8 49% 29.94 0.0
02 22:15 Calm 10.00 Overcast OVC075 52.7 34.3 50% 29.94 0.0
02 21:55 Calm 10.00 Overcast OVC075 52.9 35.2 51% 29.94 0.0
02 21:35 Calm 10.00 Overcast OVC075 52.7 34.2 49% 29.93 0.0
02 21:15 Calm 10.00 Overcast OVC075 51.8 39.6 63% 29.92 0.0
02 20:55 Calm 10.00 Overcast OVC075 52 38.5 60% 29.92 0.0
02 20:35 Calm 10.00 Overcast OVC075 52.5 38.5 59% 29.91 0.0
02 20:15 Calm 10.00 Overcast OVC075 53.8 36.9 53% 29.9 0.0
02 19:55 Calm 10.00 Overcast OVC075 54.9 35.8 61.9 54.9 49% 29.9 0.0
02 19:35 Calm 10.00 Overcast OVC075 55.8 33.4 43% 29.89 0.0
02 19:15 Calm 10.00 Overcast OVC075 56.3 32.7 41% 29.88 0.0
02 18:55 N 3 10.00 Overcast OVC075 56.8 32.5 40% 29.87 0.0
02 18:35 NE 9 10.00 Overcast SCT075 OVC090 57.7 32.5 39% 29.87 0.0
02 18:15 NE 9 10.00 Mostly Cloudy BKN090 58.8 32.5 37% 29.86 0.0
02 17:55 NE 3 10.00 Mostly Cloudy BKN090 58.6 32.7 38% 29.86 0.0
02 17:35 N 6 10.00 Partly Cloudy SCT090 59.4 33.4 38% 29.86 0.0
02 17:15 NE 7 10.00 Fair CLR 59.5 32 35% 29.86 0.0
02 16:55 Calm 10.00 Fair CLR 61 33.8 36% 29.86 0.0
02 16:35 NE 3 G 10 10.00 Partly Cloudy SCT070 59.2 32.5 37% 29.87 0.0
02 16:15 N 3 10.00 Partly Cloudy SCT070 60.8 33.6 36% 29.87 0.0
02 15:55 NE 8 10.00 Partly Cloudy SCT060 SCT070 60.8 33.6 36% 29.87 0.0
02 15:35 E 7 10.00 Partly Cloudy SCT060 SCT070 59.2 33.3 38% 29.88 0.0
02 15:15 E 3 10.00 Partly Cloudy SCT060 59.2 33.8 39% 29.89 0.0
02 14:55 NE 6 10.00 Mostly Cloudy SCT060 BKN070 58.1 33.6 40% 29.9 0.0
02 14:35 S 3 10.00 Partly Cloudy SCT060 59.4 34 39% 29.91 0.0
02 14:15 NE 6 10.00 Mostly Cloudy SCT060 BKN070 58.1 34.5 41% 29.92 0.0
02 13:55 NE 7 10.00 Overcast OVC060 57 34.2 57.7 49.1 42% 29.93 0.0
02 13:35 NE 6 10.00 Mostly Cloudy BKN060 56.7 32.4 40% 29.93 0.0
02 13:15 Calm 10.00 Mostly Cloudy BKN060 56.7 32.4 40% 29.94 0.0
02 12:55 NE 7 10.00 Partly Cloudy SCT050 SCT060 56.7 34 43% 29.95 0.0
02 12:35 E 5 10.00 Partly Cloudy SCT050 57.2 34.7 43% 29.95 0.0
02 12:15 NE 5 10.00 Mostly Cloudy BKN050 55 34.7 46% 29.95 0.0
02 11:55 E 6 10.00 Mostly Cloudy BKN055 55.6 35.1 46% 29.95 0.0
02 11:35 NE 3 10.00 Mostly Cloudy BKN049 54.9 35.8 49% 29.96 0.0
02 11:15 E 3 10.00 Mostly Cloudy BKN045 54.1 35.8 50% 29.96 0.0
02 10:55 NE 7 10.00 Partly Cloudy SCT043 54.1 37 53% 29.96 0.0
02 10:35 Calm 10.00 Fair CLR 53.4 37 54% 29.97 0.0
02 10:15 NE 5 10.00 Partly Cloudy SCT095 52.3 38.3 59% 29.96 0.0
02 09:55 NE 7 10.00 Partly Cloudy SCT095 52.7 37 55% 29.96 0.0
02 09:35 N 6 10.00 Fair CLR 52 37.6 58% 29.96 0.0
02 09:15 NE 7 10.00 Fair CLR 50.4 40.1 68% 29.96 0.0
02 08:55 NE 3 10.00 Fair CLR 50 39.9 68% 29.95 0.0
02 08:35 NE 7 10.00 Fair CLR 49.3 39.6 69% 47 29.95 0.0
02 08:15 E 5 10.00 Fair CLR 50 40.6 70% 49 29.94 0.0
02 07:55 NE 5 10.00 Fair CLR 48.6 42.1 49.1 43.9 78% 47 29.94 0.0 0.01
02 07:35 NE 7 10.00 Fair CLR 47.5 42.3 82% 45 29.94 0.0
02 07:15 Calm 10.00 Fair CLR 45 44.8 99% 29.94 0.0
02 06:55 Calm 10.00 Fair CLR 44.6 44.6 100% 29.93 0.0
02 06:35 E 3 10.00 Fair CLR 44.2 44.2 100% 29.93 0.0
02 06:15 Calm 10.00 Fair CLR 44.6 44.6 100% 29.92 0.0
02 05:55 Calm 10.00 Fair CLR 44.6 44.6 100% 29.92 0.0
02 05:35 Calm 10.00 Partly Cloudy SCT100 44.8 44.8 100% 29.92 0.0
02 05:15 Calm 10.00 Partly Cloudy SCT100 45.5 45.5 100% 29.92 0.0
02 04:55 Calm 10.00 Partly Cloudy SCT100 45.7 45.7 100% 29.91 0.0 0.01 0.01
02 04:35 Calm 10.00 Partly Cloudy SCT090 46 46 100% 29.9 0.0 0.01
02 04:15 Calm 10.00 Partly Cloudy SCT090 46.6 46.6 100% 29.9 0.0
02 03:55 Calm 4.00 Partly Cloudy SCT100 46.8 46.8 100% 29.9 0.0
02 03:35 Calm 10.00 Mostly Cloudy SCT070 BKN100 47.3 47.3 100% 29.89 0.0
02 03:15 Calm 10.00 Mostly Cloudy BKN070 BKN100 47.7 47.7 100% 29.9 0.0
02 02:55 Calm 10.00 Overcast OVC070 47.8 47.7 99% 29.9 0.0
02 02:35 Calm 10.00 Mostly Cloudy BKN070 47.8 47.5 99% 29.9 0.0
02 02:15 Calm 10.00 Partly Cloudy SCT110 48.4 48.2 99% 29.91 0.0
02 01:55 Calm 10.00 Partly Cloudy SCT110 49.3 48.7 62.6 49.3 98% 29.91 0.0
02 01:35 Calm 10.00 Mostly Cloudy BKN110 49.5 48.7 97% 29.91 0.0
02 01:15 NE 3 10.00 Mostly Cloudy BKN110 49.5 49.3 99% 29.9 0.0
02 00:55 Calm 10.00 Partly Cloudy SCT060 SCT100 SCT120 50.5 50 98% 29.9 0.0
02 00:35 NE 3 10.00 Overcast SCT060 SCT075 OVC100 51.1 50 96% 29.9 0.0
02 00:15 Calm 10.00 Overcast BKN060 OVC075 52.2 48.7 88% 29.9 0.0
01 23:55 SW 5 10.00 Overcast BKN070 OVC080 57.4 42.8 58% 29.9 0.0
01 23:35 Calm 10.00 Overcast OVC080 52.9 43.7 71% 29.88 0.0
01 23:15 Calm 10.00 Mostly Cloudy BKN080 BKN120 52 43 72% 29.88 0.0
01 22:55 Calm 10.00 Partly Cloudy SCT120 51.3 41.9 71% 29.87 0.0
01 22:35 Calm 10.00 Mostly Cloudy BKN120 52.9 42.6 68% 29.86 0.0
01 22:15 Calm 10.00 Partly Cloudy SCT120 54.1 41.5 63% 29.85 0.0
01 21:55 Calm 10.00 Partly Cloudy SCT120 56.5 40.3 55% 29.86 0.0
01 21:35 SW 3 10.00 Fair CLR 57.6 39.9 52% 29.85 0.0
01 21:15 SW 3 10.00 Fair CLR 57.9 39.2 50% 29.85 0.0
01 20:55 SW 6 10.00 Fair CLR 58.3 38.8 49% 29.83 0.0
01 20:35 Calm 10.00 Fair CLR 59.9 38.1 45% 29.82 0.0
01 20:15 S 5 10.00 Partly Cloudy SCT110 61.5 37.2 41% 29.81 0.0
01 19:55 S 6 10.00 Fair CLR 63 37.2 68.9 63 39% 29.81 0.0
01 19:35 S 5 10.00 Partly Cloudy SCT110 64 37.8 38% 29.81 0.0
01 19:15 S 8 10.00 Partly Cloudy SCT110 66.2 36.9 34% 29.81 0.0
01 18:55 S 6 G 16 10.00 Fair CLR 66.6 35.6 32% 29.81 0.0
01 18:35 S 9 G 18 10.00 Fair CLR 66.9 35.2 31% 29.81 0.0
01 18:15 SW 13 G 20 10.00 Fair CLR 68 35.2 30% 29.82 0.0
01 17:55 S 10 G 17 10.00 Fair CLR 68.5 36 30% 29.82 0.0
01 17:35 SW 12 G 20 10.00 Fair CLR 68.4 35.1 29% 29.83 0.0
01 17:15 S 8 G 16 10.00 Fair CLR 68.4 34.7 29% 29.83 0.0
01 16:55 SW 9 G 18 10.00 Fair CLR 68 33.6 28% 29.84 0.0
01 16:35 SW 12 G 21 10.00 Fair CLR 68 34.2 29% 29.84 0.0
01 16:15 S 10 G 17 10.00 Fair CLR 68.2 34.7 29% 29.84 0.0
01 15:55 SW 12 G 20 10.00 Fair CLR 67.8 33.8 28% 29.86 0.0
01 15:35 S 7 G 20 10.00 Fair CLR 67.3 35.1 30% 29.87 0.0
01 15:15 SW 10 G 23 10.00 Fair CLR 67.5 35.1 30% 29.88 0.0
01 14:55 SW 15 G 22 10.00 Fair CLR 67.3 35.1 30% 29.9 0.0
01 14:35 S 8 G 16 10.00 Fair CLR 65.7 35.1 32% 29.91 0.0
01 13:55 SW 10 10.00 Fair CLR 65.7 35.8 65.7 47.8 33% 29.92 0.0
01 13:35 S 10 10.00 Fair CLR 64.4 34.3 33% 29.92 0.0
01 13:15 W 5 10.00 Fair CLR 63.7 34.3 34% 29.93 0.0
01 12:55 Calm 10.00 Fair CLR 61.2 32.9 35% 29.94 0.0
01 12:35 S 7 10.00 Fair CLR 61 33.4 36% 29.95 0.0
01 12:15 SW 8 10.00 Fair CLR 60.8 33.4 36% 29.96 0.0
01 11:55 SW 7 10.00 Fair CLR 60.6 34.7 38% 29.97 0.0
01 11:35 Calm 10.00 Fair CLR 59 33.4 38% 29.98 0.0
01 11:15 S 6 10.00 Fair CLR 59.4 34.9 40% 29.99 0.0
01 10:55 SW 3 10.00 Fair CLR 58.1 33.6 40% 30 0.0
01 10:35 Calm 10.00 Fair CLR 56.5 33.8 43% 30 0.0
01 10:15 Calm 10.00 Fair CLR 57.2 34 42% 30 0.0
01 09:55 Calm 10.00 Fair CLR 55.4 33.4 44% 30 0.0
01 09:35 Calm 10.00 Fair CLR 54.3 36.3 51% 30 0.0
01 09:15 Calm 10.00 Fair CLR 53.8 37.2 54% 30 0.0
01 08:55 SW 3 10.00 Fair CLR 52.9 37.8 57% 30 0.0
01 08:35 Calm 10.00 Fair CLR 51.6 37.8 59% 30 0.0
01 08:15 Calm 10.00 Fair CLR 49.8 40.6 71% 30 0.0
01 07:55 Calm 10.00 Fair CLR 46.9 41.7 49.8 39 82% 30 0.0
01 07:35 Calm 10.00 Fair CLR 44.4 41 88% 30 0.0
01 07:15 Calm 10.00 Fair CLR 41.2 39.6 94% 30 0.0
01 06:55 Calm 10.00 Fair CLR 40.3 39.2 96% 29.99 0.0
01 06:35 Calm 10.00 Fair CLR 39.2 38.3 97% 29.99 0.0
01 06:15 Calm 10.00 Fair CLR 39.6 38.7 97% 29.98 0.0
01 05:55 Calm 10.00 Fair CLR 41 39.6 95% 29.98 0.0
01 05:35 Calm 10.00 Fair CLR 40.5 39.4 96% 29.99 0.0
01 05:15 Calm 10.00 Fair CLR 42.1 40.1 93% 29.98 0.0
01 04:55 Calm 10.00 Fair CLR 42.4 40.1 91% 29.98 0.0
01 04:35 Calm 10.00 Fair CLR 41.4 39.6 93% 29.97 0.0
01 04:15 Calm 10.00 Fair CLR 42.3 40.1 92% 29.97 0.0
Date Time (edt) Wind (mph) Vis. (mi.) Weather Sky Cond. Air Dwpt Max. Min. Relative Humidity Wind Chill (°F) Heat Index (°F) altimeter (in) sea level (mb) 1 hr 3 hr 6 hr
6 hour
Temperature (ºF) Pressure Precipitation (in)